Time;durP1;ratioP1;P1;durP2;ratioP2;P2;SDS_P1;SDS_P2;PMS_P1;PMS_P2;Temp;Humidity;BMP_temperature;BMP_pressure;BME280_temperature;BME280_humidity;BME280_pressure;Samples;Min_cycle;Max_cycle;Signal;HPM_P1;HPM_P2
2023/09/08 00:01:04;;;;;;;89.70;85.20;;;;;;;17.97;100.00;102255.94;4965589;28;20436;-43
2023/09/08 00:03:31;;;;;;;91.37;86.87;;;;;;;17.96;100.00;102256.97;4970570;28;20444;-41
2023/09/08 00:05:59;;;;;;;90.83;86.43;;;;;;;17.94;100.00;102257.19;4965589;28;20857;-42
2023/09/08 00:08:27;;;;;;;92.80;88.47;;;;;;;17.93;100.00;102252.00;4969409;28;20485;-41
2023/09/08 00:10:55;;;;;;;91.67;87.43;;;;;;;17.90;100.00;102247.84;4967388;28;20430;-41
2023/09/08 00:13:22;;;;;;;98.10;93.83;;;;;;;17.89;100.00;102245.38;4975568;28;20470;-41
2023/09/08 00:15:52;;;;;;;96.30;91.90;;;;;;;17.89;100.00;102248.06;4958643;28;20459;-40
2023/09/08 00:18:19;;;;;;;96.30;91.80;;;;;;;17.86;100.00;102256.59;4960251;28;20829;-41
2023/09/08 00:20:47;;;;;;;102.07;97.47;;;;;;;17.82;100.00;102248.06;4975469;28;20435;-43
2023/09/08 00:23:15;;;;;;;102.07;97.00;;;;;;;17.82;100.00;102244.53;4975213;28;20526;-42
2023/09/08 00:25:43;;;;;;;102.13;97.00;;;;;;;17.80;100.00;102252.81;4966869;28;20507;-41
2023/09/08 00:28:10;;;;;;;100.93;96.33;;;;;;;17.77;100.00;102242.44;4955477;28;20998;-43
2023/09/08 00:30:38;;;;;;;98.27;93.90;;;;;;;17.75;100.00;102241.00;4956050;28;20435;-41
2023/09/08 00:33:08;;;;;;;102.23;97.53;;;;;;;17.73;100.00;102243.06;4963881;28;20879;-41
2023/09/08 00:35:36;;;;;;;107.80;102.63;;;;;;;17.70;100.00;102238.94;4955424;28;21009;-41
2023/09/08 00:38:04;;;;;;;97.60;93.10;;;;;;;17.67;100.00;102237.47;4955299;28;20465;-40
2023/09/08 00:40:32;;;;;;;104.97;99.77;;;;;;;17.64;100.00;102243.28;4955769;28;20445;-40
2023/09/08 00:43:00;;;;;;;110.87;106.00;;;;;;;17.61;100.00;102249.09;4955729;28;20443;-43
2023/09/08 00:45:30;;;;;;;109.83;105.40;;;;;;;17.57;100.00;102237.03;4968495;28;20513;-40
2023/09/08 00:47:59;;;;;;;111.00;106.30;;;;;;;17.55;100.00;102238.28;4957207;28;20505;-41
2023/09/08 00:50:28;;;;;;;111.17;105.80;;;;;;;17.53;100.00;102240.34;4955583;28;20493;-41
2023/09/08 00:52:56;;;;;;;110.37;105.67;;;;;;;17.50;100.00;102238.06;4955628;28;20434;-40
2023/09/08 00:55:24;;;;;;;116.97;112.10;;;;;;;17.48;100.00;102232.03;4967719;28;20549;-40
2023/09/08 00:57:52;;;;;;;117.20;112.03;;;;;;;17.45;100.00;102230.56;4966090;28;20451;-40
2023/09/08 01:00:19;;;;;;;115.00;110.00;;;;;;;17.42;100.00;102227.44;4959539;28;20493;-40
2023/09/08 01:02:48;;;;;;;115.70;110.43;;;;;;;17.41;100.00;102220.41;4966500;28;20462;-42
2023/09/08 01:05:16;;;;;;;117.60;112.50;;;;;;;17.39;100.00;102222.47;4974347;28;20834;-40
2023/09/08 01:07:47;;;;;;;122.40;117.10;;;;;;;17.36;100.00;102218.31;4974449;28;20948;-41
2023/09/08 01:10:15;;;;;;;117.27;112.30;;;;;;;17.32;100.00;102227.88;4966545;28;20522;-40
2023/09/08 01:12:43;;;;;;;117.37;112.57;;;;;;;17.29;100.00;102220.19;4966450;28;20445;-40
2023/09/08 01:15:11;;;;;;;118.40;113.80;;;;;;;17.27;100.00;102230.34;4965891;28;20494;-41
2023/09/08 01:17:40;;;;;;;115.93;111.03;;;;;;;17.24;100.00;102216.41;4959643;28;20451;-42
2023/09/08 01:20:17;;;;;;;118.40;113.30;;;;;;;17.22;100.00;102218.50;4973141;28;20439;-43
2023/09/08 01:23:22;;;;;;;118.70;113.67;;;;;;;17.17;100.00;102214.53;4966443;28;20431;-43
2023/09/08 01:25:56;;;;;;;122.87;117.67;;;;;;;17.17;100.00;102219.13;4952947;28;20483;-41
2023/09/08 01:28:25;;;;;;;124.47;118.77;;;;;;;17.15;100.00;102224.72;4967039;28;20577;-42
2023/09/08 01:30:54;;;;;;;120.47;115.10;;;;;;;17.13;100.00;102221.41;4965907;28;20431;-41
2023/09/08 01:33:23;;;;;;;113.33;108.77;;;;;;;17.10;100.00;102216.41;4961956;28;20435;-40
2023/09/08 01:35:51;;;;;;;109.43;104.60;;;;;;;17.08;100.00;102213.06;4961704;28;20459;-42
2023/09/08 01:38:19;;;;;;;114.53;109.60;;;;;;;17.05;100.00;102204.59;4965923;28;20542;-40
2023/09/08 01:40:46;;;;;;;116.10;111.10;;;;;;;16.99;100.00;102211.59;4974007;28;20470;-40
2023/09/08 01:43:15;;;;;;;119.77;114.73;;;;;;;16.96;100.00;102216.59;4963750;28;20793;-41
2023/09/08 01:45:43;;;;;;;117.63;112.50;;;;;;;16.93;100.00;102215.13;4968977;28;20470;-41
2023/09/08 01:48:11;;;;;;;115.50;110.77;;;;;;;16.90;100.00;102210.16;4970942;28;20526;-42
2023/09/08 01:50:39;;;;;;;123.53;118.73;;;;;;;16.88;100.00;102214.88;4964646;28;20466;-42
2023/09/08 01:53:07;;;;;;;127.13;122.23;;;;;;;16.85;100.00;102209.91;4971835;28;20493;-42
2023/09/08 01:55:34;;;;;;;127.90;122.43;;;;;;;16.83;100.00;102205.75;4967571;28;20462;-41
2023/09/08 01:58:02;;;;;;;121.23;116.43;;;;;;;16.81;100.00;102202.44;4972987;28;20462;-44
2023/09/08 02:00:31;;;;;;;117.10;112.00;;;;;;;16.76;100.00;102210.28;4960584;28;20931;-44
2023/09/08 02:02:59;;;;;;;117.47;112.63;;;;;;;16.71;100.00;102202.81;4954132;28;20440;-41
2023/09/08 02:05:27;;;;;;;120.57;114.97;;;;;;;16.70;100.00;102198.44;4958227;28;20466;-41
2023/09/08 02:07:57;;;;;;;123.20;118.37;;;;;;;16.72;100.00;102193.72;4964737;28;20990;-40
2023/09/08 02:10:24;;;;;;;122.53;117.43;;;;;;;16.72;100.00;102198.25;4954275;28;20503;-41
2023/09/08 02:12:53;;;;;;;125.93;120.87;;;;;;;16.69;100.00;102193.28;4961923;28;20442;-41
2023/09/08 02:15:21;;;;;;;132.03;126.30;;;;;;;16.69;100.00;102191.41;4961098;28;21006;-41
2023/09/08 02:17:53;;;;;;;123.67;118.37;;;;;;;16.70;100.00;102190.38;4961013;28;20989;-43
2023/09/08 02:20:21;;;;;;;117.17;112.07;;;;;;;16.69;100.00;102187.88;4961909;28;20498;-41
2023/09/08 02:22:50;;;;;;;121.90;116.63;;;;;;;16.69;100.00;102190.59;4961206;28;20472;-42
2023/09/08 02:25:18;;;;;;;117.27;112.13;;;;;;;16.67;100.00;102185.38;4956953;28;20458;-41
2023/09/08 02:27:46;;;;;;;122.27;117.47;;;;;;;16.64;100.00;102193.03;4972815;28;20462;-42
2023/09/08 02:30:13;;;;;;;126.37;121.03;;;;;;;16.59;100.00;102183.72;4954180;28;20516;-41
2023/09/08 02:32:42;;;;;;;126.50;120.97;;;;;;;16.54;100.00;102188.03;4953639;28;20962;-40
2023/09/08 02:35:12;;;;;;;122.43;117.43;;;;;;;16.49;100.00;102180.50;4963533;28;20459;-41
2023/09/08 02:37:40;;;;;;;126.73;121.40;;;;;;;16.44;100.00;102174.91;4972707;28;20977;-40
2023/09/08 02:40:08;;;;;;;127.23;122.30;;;;;;;16.40;100.00;102172.81;4956848;28;20431;-42
2023/09/08 02:42:36;;;;;;;127.10;121.57;;;;;;;16.33;100.00;102169.28;4959403;28;20436;-40
2023/09/08 02:45:04;;;;;;;117.33;112.53;;;;;;;16.27;100.00;102178.13;4968965;28;20454;-41
2023/09/08 02:47:32;;;;;;;120.87;115.80;;;;;;;16.21;100.00;102166.31;4961195;28;20451;-43
2023/09/08 02:50:00;;;;;;;120.70;115.67;;;;;;;16.16;100.00;102157.19;4953461;28;20479;-40
2023/09/08 02:52:29;;;;;;;118.27;113.27;;;;;;;16.12;100.00;102162.13;4961764;28;20535;-43
2023/09/08 02:54:56;;;;;;;120.67;115.63;;;;;;;16.08;100.00;102163.53;4969259;28;20980;-42
2023/09/08 02:57:24;;;;;;;128.80;123.50;;;;;;;16.08;100.00;102160.84;4956917;28;20458;-42
2023/09/08 02:59:52;;;;;;;124.10;119.10;;;;;;;16.07;100.00;102158.38;4964969;28;20431;-40
2023/09/08 03:02:20;;;;;;;130.57;124.70;;;;;;;16.09;100.00;102159.00;4953570;28;20448;-41
2023/09/08 03:04:47;;;;;;;124.40;118.97;;;;;;;16.12;100.00;102164.81;4959947;28;20438;-41
2023/09/08 03:07:15;;;;;;;121.10;116.20;;;;;;;16.16;100.00;102160.69;4964220;28;20456;-41
2023/09/08 03:09:45;;;;;;;128.33;123.20;;;;;;;16.18;100.00;102163.19;4958413;28;20888;-41
2023/09/08 03:12:12;;;;;;;126.70;121.37;;;;;;;16.19;100.00;102157.59;4955407;28;20444;-40
2023/09/08 03:14:40;;;;;;;121.73;116.83;;;;;;;16.17;100.00;102154.28;4964106;28;20525;-41
2023/09/08 03:17:08;;;;;;;120.30;115.60;;;;;;;16.15;100.00;102153.66;4964404;28;20485;-41
2023/09/08 03:19:36;;;;;;;126.00;120.60;;;;;;;16.16;100.00;102151.78;4972725;28;20438;-42
2023/09/08 03:22:04;;;;;;;130.27;124.83;;;;;;;16.17;100.00;102145.38;4963540;28;20439;-40
2023/09/08 03:24:31;;;;;;;126.57;121.30;;;;;;;16.10;100.00;102150.69;4970675;28;20435;-41
2023/09/08 03:27:00;;;;;;;133.53;127.87;;;;;;;16.08;100.00;102141.16;4955859;28;20463;-41
2023/09/08 03:29:28;;;;;;;122.33;117.20;;;;;;;16.01;100.00;102141.97;4960368;28;20475;-43
2023/09/08 03:31:56;;;;;;;126.47;121.13;;;;;;;16.00;100.00;102140.31;4953438;28;20873;-40
2023/09/08 03:34:24;;;;;;;126.37;121.17;;;;;;;15.98;100.00;102133.44;4965092;28;20846;-40
2023/09/08 03:36:54;;;;;;;130.57;124.87;;;;;;;15.98;100.00;102136.97;4956431;28;20468;-42
2023/09/08 03:39:21;;;;;;;126.93;121.73;;;;;;;16.00;100.00;102136.78;4956492;28;20927;-42
2023/09/08 03:41:49;;;;;;;130.60;124.67;;;;;;;15.97;100.00;102138.03;4972508;28;20462;-40
2023/09/08 03:44:18;;;;;;;131.73;125.80;;;;;;;15.99;100.00;102127.06;4972274;28;20434;-43
2023/09/08 03:46:46;;;;;;;133.43;128.13;;;;;;;16.00;100.00;102126.03;4965317;28;20466;-41
2023/09/08 03:49:14;;;;;;;131.33;125.97;;;;;;;16.02;100.00;102129.34;4971061;28;20551;-44
2023/09/08 03:51:42;;;;;;;137.37;131.77;;;;;;;16.05;100.00;102137.03;4966644;28;20446;-42
2023/09/08 03:54:10;;;;;;;130.57;125.27;;;;;;;16.02;100.00;102122.09;4953016;28;20440;-41
2023/09/08 03:56:37;;;;;;;132.43;126.80;;;;;;;16.00;100.00;102113.41;4952293;28;20558;-40
2023/09/08 03:59:05;;;;;;;130.00;124.70;;;;;;;16.02;100.00;102118.59;4953615;28;20484;-42
2023/09/08 04:01:34;;;;;;;131.33;125.80;;;;;;;16.01;100.00;102122.28;4963548;28;20463;-41
2023/09/08 04:04:02;;;;;;;129.87;124.50;;;;;;;15.99;100.00;102117.13;4964707;28;20954;-40
2023/09/08 04:06:29;;;;;;;130.33;124.93;;;;;;;16.00;100.00;102115.28;4967204;28;20463;-41
2023/09/08 04:08:57;;;;;;;134.13;128.53;;;;;;;16.01;100.00;102117.75;4968039;28;20894;-40
2023/09/08 04:11:25;;;;;;;137.00;131.23;;;;;;;16.00;100.00;102109.88;4964404;28;20435;-40
2023/09/08 04:13:53;;;;;;;139.17;133.27;;;;;;;15.98;100.00;102107.38;4964368;28;20482;-40
2023/09/08 04:16:21;;;;;;;135.90;130.20;;;;;;;15.98;100.00;102114.63;4974672;28;20458;-44
2023/09/08 04:18:50;;;;;;;136.33;130.80;;;;;;;15.96;100.00;102114.00;4969187;28;20919;-40
2023/09/08 04:21:20;;;;;;;147.40;141.10;;;;;;;15.95;100.00;102112.31;4964442;28;20427;-40
2023/09/08 04:23:48;;;;;;;144.17;137.87;;;;;;;15.93;100.00;102114.41;4968001;28;20791;-40
2023/09/08 04:26:16;;;;;;;144.77;139.10;;;;;;;15.92;100.00;102105.47;4974815;28;20463;-42
2023/09/08 04:28:44;;;;;;;143.13;137.23;;;;;;;15.92;100.00;102105.47;4967235;28;20465;-41
2023/09/08 04:31:11;;;;;;;141.63;135.57;;;;;;;15.90;100.00;102102.19;4965536;28;20475;-41
2023/09/08 04:33:39;;;;;;;139.67;134.17;;;;;;;15.92;100.00;102102.78;4964068;28;20947;-40
2023/09/08 04:36:10;;;;;;;137.03;131.63;;;;;;;15.91;100.00;102100.31;4971351;28;20470;-42
2023/09/08 04:38:38;;;;;;;134.67;129.07;;;;;;;15.91;100.00;102100.31;4969023;28;20461;-40
2023/09/08 04:41:06;;;;;;;125.53;120.63;;;;;;;15.90;100.00;102107.56;4974147;28;20485;-40
2023/09/08 04:43:34;;;;;;;135.63;130.33;;;;;;;15.90;100.00;102096.78;4960168;28;20505;-40
2023/09/08 04:46:02;;;;;;;124.67;119.37;;;;;;;15.92;100.00;102099.28;4974490;28;20493;-41
2023/09/08 04:48:30;;;;;;;126.13;120.70;;;;;;;15.93;100.00;102107.16;4967038;28;20871;-40
2023/09/08 04:50:58;;;;;;;128.47;122.97;;;;;;;15.94;100.00;102094.53;4975201;28;20486;-45
2023/09/08 04:53:27;;;;;;;120.40;115.50;;;;;;;15.94;100.00;102103.44;4971716;28;20548;-43
2023/09/08 04:55:55;;;;;;;124.37;119.27;;;;;;;15.98;100.00;102099.31;4955038;28;20491;-41
2023/09/08 04:58:23;;;;;;;122.90;117.50;;;;;;;15.98;100.00;102093.94;4971131;28;20820;-40
2023/09/08 05:00:51;;;;;;;131.93;126.13;;;;;;;16.01;100.00;102098.91;4970122;28;20514;-42
2023/09/08 05:03:18;;;;;;;131.23;125.93;;;;;;;16.08;100.00;102095.44;4958883;28;20494;-40
2023/09/08 05:05:46;;;;;;;122.87;118.03;;;;;;;16.15;100.00;102093.59;4960398;28;20463;-40
2023/09/08 05:08:14;;;;;;;118.37;113.60;;;;;;;16.25;100.00;102102.94;4954977;28;21142;-41
2023/09/08 05:10:44;;;;;;;116.33;111.63;;;;;;;16.38;100.00;102104.88;4955213;28;20479;-40
2023/09/08 05:13:12;;;;;;;112.97;108.03;;;;;;;16.57;100.00;102113.06;4963026;28;20981;-41
2023/09/08 05:16:00;;;;;;;116.77;111.53;;;;;;;16.78;100.00;102111.25;4954729;28;20538;-40
2023/09/08 05:18:27;;;;;;;108.87;104.30;;;;;;;16.95;100.00;102113.34;4962895;28;20468;-41
2023/09/08 05:20:55;;;;;;;113.00;108.50;;;;;;;17.01;100.00;102114.38;4962060;28;20431;-40
2023/09/08 05:23:23;;;;;;;111.90;107.23;;;;;;;17.05;100.00;102107.56;4963268;28;20439;-40
2023/09/08 05:25:52;;;;;;;116.70;112.00;;;;;;;17.09;100.00;102115.00;4959345;28;20495;-40
2023/09/08 05:28:20;;;;;;;117.87;112.77;;;;;;;17.15;100.00;102113.34;4957275;28;20547;-40
2023/09/08 05:30:48;;;;;;;118.23;113.23;;;;;;;17.18;100.00;102107.56;4966087;28;20561;-41
2023/09/08 05:33:15;;;;;;;108.57;103.97;;;;;;;17.46;100.00;102104.66;4958037;28;20445;-39
2023/09/08 05:35:43;;;;;;;88.20;84.33;;;;;;;18.30;100.00;102121.72;4960207;28;20534;-41
2023/09/08 05:38:11;;;;;;;75.93;72.13;;;;;;;19.12;100.00;102118.97;4962302;28;20490;-43
2023/09/08 05:40:39;;;;;;;60.23;57.33;;;;;;;20.01;100.00;102112.34;4959679;28;20430;-41
2023/09/08 05:43:08;;;;;;;50.80;48.40;;;;;;;20.94;100.00;102116.31;4965495;28;20955;-43
2023/09/08 05:45:36;;;;;;;49.70;47.30;;;;;;;21.69;100.00;102103.81;4954258;28;20851;-42
2023/09/08 05:48:04;;;;;;;47.77;45.47;;;;;;;22.44;100.00;102093.75;4962008;28;20986;-42
2023/09/08 05:50:32;;;;;;;51.70;48.90;;;;;;;23.05;100.00;102071.22;4966026;28;21052;-42
2023/09/08 05:53:00;;;;;;;55.70;53.00;;;;;;;23.56;100.00;102047.53;4973706;28;20438;-42
2023/09/08 05:55:27;;;;;;;51.93;49.37;;;;;;;24.14;100.00;102038.75;4965251;28;20895;-42
2023/09/08 05:57:55;;;;;;;53.40;51.07;;;;;;;24.60;100.00;102031.88;4958783;28;20463;-41
2023/09/08 06:00:24;;;;;;;51.20;48.80;;;;;;;25.00;100.00;102039.63;4956933;28;20440;-44
2023/09/08 06:02:52;;;;;;;50.73;48.53;;;;;;;25.31;100.00;102036.00;4969050;28;20459;-41
2023/09/08 06:05:20;;;;;;;50.63;48.50;;;;;;;25.83;100.00;102033.34;4963018;28;20477;-44
2023/09/08 06:07:48;;;;;;;48.43;46.10;;;;;;;26.46;100.00;102039.56;4969299;28;20469;-41
2023/09/08 06:10:32;;;;;;;44.97;43.17;;;;;;;26.95;100.00;102037.97;4962531;28;20623;-42
2023/09/08 06:13:01;;;;;;;35.23;33.50;;;;;;;27.32;100.00;102041.22;4971044;28;20492;-42
2023/09/08 06:15:30;;;;;;;41.70;40.00;;;;;;;27.71;100.00;102026.91;4972618;28;20550;-41
2023/09/08 06:17:58;;;;;;;31.77;30.30;;;;;;;28.09;100.00;102028.09;4964972;28;20955;-43
2023/09/08 06:20:26;;;;;;;30.70;29.30;;;;;;;28.38;100.00;102023.53;4961666;28;20446;-43
2023/09/08 06:22:54;;;;;;;31.67;30.40;;;;;;;28.67;100.00;102027.22;4964984;28;20434;-42
2023/09/08 06:25:22;;;;;;;23.60;22.50;;;;;;;28.91;100.00;102030.03;4969824;28;20489;-42
2023/09/08 06:27:50;;;;;;;24.70;23.63;;;;;;;29.31;100.00;102020.59;4952578;28;20640;-41
2023/09/08 06:30:18;;;;;;;20.20;19.23;;;;;;;29.29;100.00;102022.81;4961029;28;20298;-42
2023/09/08 06:32:47;;;;;;;21.17;19.97;;;;;;;29.08;80.02;102025.75;4958526;28;20203;-42
2023/09/08 06:35:15;;;;;;;18.07;16.97;;;;;;;29.43;98.41;102023.75;4956123;28;20501;-39
2023/09/08 06:37:43;;;;;;;17.67;16.77;;;;;;;29.64;97.64;102017.75;4959583;28;20303;-41
2023/09/08 06:40:10;;;;;;;14.13;13.27;;;;;;;29.87;93.93;102016.09;4952992;28;20282;-42
2023/09/08 06:42:38;;;;;;;15.27;14.37;;;;;;;29.85;85.80;102023.84;4965440;28;20864;-40
2023/09/08 06:45:07;;;;;;;14.13;13.33;;;;;;;30.03;90.54;102022.22;4964109;28;20237;-40
2023/09/08 06:47:35;;;;;;;13.43;12.63;;;;;;;30.12;89.18;102020.44;4955592;28;20273;-40
2023/09/08 06:50:06;;;;;;;14.80;14.00;;;;;;;30.28;84.24;102023.78;4956352;28;20274;-40
2023/09/08 06:52:34;;;;;;;14.37;13.50;;;;;;;30.33;88.62;102015.47;4956797;28;20214;-40
2023/09/08 06:55:02;;;;;;;15.15;14.25;;;;;;;30.13;84.29;102020.16;4972015;28;20238;-40
2023/09/08 06:57:30;;;;;;;14.33;13.43;;;;;;;30.21;84.52;102012.34;4955668;28;20299;-40
2023/09/08 06:59:58;;;;;;;13.80;13.00;;;;;;;30.36;86.69;102023.94;4972644;28;20651;-40
2023/09/08 07:02:25;;;;;;;13.63;12.82;;;;;;;30.45;82.56;102013.09;4972212;28;20281;-40
2023/09/08 07:04:53;;;;;;;12.68;11.90;;;;;;;30.25;75.44;102024.41;4972465;28;20214;-40
2023/09/08 07:07:23;;;;;;;13.17;12.37;;;;;;;30.06;75.58;102024.38;4971360;28;20305;-39
2023/09/08 07:09:51;;;;;;;14.20;13.27;;;;;;;29.49;73.32;102017.09;4972216;28;20670;-42
2023/09/08 07:12:19;;;;;;;13.23;12.20;;;;;;;29.42;73.84;102019.41;4972048;28;20223;-40
2023/09/08 07:14:46;;;;;;;12.47;11.70;;;;;;;29.26;75.18;102020.66;4971855;28;20215;-41
2023/09/08 07:17:15;;;;;;;13.27;12.37;;;;;;;28.93;77.00;102020.41;4971579;28;20333;-43
2023/09/08 07:19:43;;;;;;;11.53;10.93;;;;;;;28.68;73.39;102025.28;4972075;28;20624;-40
2023/09/08 07:22:11;;;;;;;13.57;12.77;;;;;;;28.14;73.20;102023.41;4972099;28;20253;-42
2023/09/08 07:24:40;;;;;;;15.27;14.17;;;;;;;27.79;73.79;102021.66;4971214;28;20318;-43
2023/09/08 07:27:08;;;;;;;12.70;11.90;;;;;;;27.60;83.95;102017.88;4956235;28;20206;-45
2023/09/08 07:29:36;;;;;;;13.10;12.30;;;;;;;27.36;84.51;102028.59;4952756;28;20926;-40
2023/09/08 07:32:05;;;;;;;13.60;12.80;;;;;;;27.09;87.30;102017.13;4967209;28;20478;-39
2023/09/08 07:34:32;;;;;;;12.70;11.90;;;;;;;26.84;91.26;102008.97;4973372;28;20954;-40
2023/09/08 07:37:00;;;;;;;13.50;12.60;;;;;;;26.47;91.73;102008.34;4959735;28;20519;-42
2023/09/08 07:39:28;;;;;;;14.67;13.67;;;;;;;26.21;94.03;102012.97;4972676;28;20434;-42
2023/09/08 07:41:57;;;;;;;14.53;13.60;;;;;;;26.19;98.54;102009.69;4970606;28;20434;-42
2023/09/08 07:44:28;;;;;;;15.07;12.30;;;;;;;26.28;100.00;102006.13;4965250;28;20966;-46
2023/09/08 07:46:56;;;;;;;14.33;13.07;;;;;;;26.43;100.00;102002.63;4963459;28;20482;-45
2023/09/08 07:49:24;;;;;;;15.13;13.93;;;;;;;26.38;95.53;102003.44;4963697;28;20431;-44
2023/09/08 07:51:52;;;;;;;13.33;12.43;;;;;;;26.59;98.25;102009.75;4968628;28;20501;-42
2023/09/08 07:54:19;;;;;;;13.90;13.00;;;;;;;26.80;94.12;102011.44;4967441;28;20431;-42
2023/09/08 07:56:48;;;;;;;13.30;12.30;;;;;;;27.04;95.03;102003.47;4969214;28;20542;-40
2023/09/08 07:59:17;;;;;;;13.33;12.43;;;;;;;27.25;93.76;102007.00;4956443;28;20463;-44
2023/09/08 08:01:45;;;;;;;12.90;12.07;;;;;;;27.24;91.96;102005.38;4975386;28;20530;-41
2023/09/08 08:04:12;;;;;;;14.67;13.70;;;;;;;27.14;89.20;102005.38;4959253;28;20463;-42
2023/09/08 08:06:40;;;;;;;14.20;13.20;;;;;;;26.97;90.88;102007.59;4975029;28;20469;-40
2023/09/08 08:09:08;;;;;;;13.60;12.80;;;;;;;26.55;92.70;101999.63;4959319;28;20482;-41
2023/09/08 08:11:36;;;;;;;13.63;12.53;;;;;;;26.27;95.31;101998.22;4966588;28;20478;-42
2023/09/08 08:14:04;;;;;;;13.40;12.40;;;;;;;26.12;97.82;102000.88;4974129;28;20521;-39
2023/09/08 08:16:34;;;;;;;14.67;13.47;;;;;;;25.96;97.21;101997.28;4965205;28;20541;-40
2023/09/08 08:19:03;;;;;;;13.13;12.27;;;;;;;25.83;100.00;102000.53;4975564;28;20454;-42
2023/09/08 08:21:31;;;;;;;15.50;14.07;;;;;;;25.82;99.72;102002.44;4959043;28;20878;-39
2023/09/08 08:23:58;;;;;;;13.63;12.67;;;;;;;25.76;100.00;101999.97;4973743;28;20513;-44
2023/09/08 08:26:29;;;;;;;13.30;12.40;;;;;;;25.76;100.00;101991.75;4955532;28;20487;-41
2023/09/08 08:28:57;;;;;;;13.50;12.60;;;;;;;25.79;100.00;101991.22;4969533;28;20454;-40
2023/09/08 08:31:25;;;;;;;12.57;11.60;;;;;;;25.91;100.00;101989.06;4965201;28;20467;-40
2023/09/08 08:33:54;;;;;;;14.63;13.47;;;;;;;25.69;100.00;101988.44;4955957;28;20530;-43
2023/09/08 08:36:21;;;;;;;12.93;12.03;;;;;;;25.73;100.00;101984.09;4954843;28;20487;-44
2023/09/08 08:38:49;;;;;;;12.00;11.10;;;;;;;25.91;100.00;101982.78;4955025;28;20455;-41
2023/09/08 08:41:17;;;;;;;11.80;11.00;;;;;;;25.90;100.00;101981.97;4962108;28;20435;-41
2023/09/08 08:43:47;;;;;;;12.53;11.67;;;;;;;25.99;100.00;101969.41;4967440;28;20477;-45
2023/09/08 08:46:15;;;;;;;12.07;11.20;;;;;;;26.02;100.00;101968.06;4957267;28;20463;-41
2023/09/08 08:48:43;;;;;;;11.80;10.80;;;;;;;26.22;100.00;101963.47;4967002;28;20477;-42
2023/09/08 08:51:14;;;;;;;12.63;11.57;;;;;;;26.20;100.00;101959.38;4974237;28;20493;-39
2023/09/08 08:53:43;;;;;;;13.37;12.37;;;;;;;26.37;100.00;101965.44;4974132;28;20477;-41
2023/09/08 08:56:11;;;;;;;13.03;12.10;;;;;;;26.41;100.00;101958.31;4966272;28;21001;-44
2023/09/08 08:58:40;;;;;;;12.57;11.70;;;;;;;26.60;100.00;101961.31;4966511;28;20490;-40
2023/09/08 09:01:10;;;;;;;12.67;11.73;;;;;;;26.55;100.00;101962.16;4966232;28;20446;-42
2023/09/08 09:03:41;;;;;;;12.20;11.30;;;;;;;26.56;100.00;101955.56;4956986;28;20430;-42
2023/09/08 09:06:10;;;;;;;13.40;12.50;;;;;;;26.55;98.23;101961.34;4966139;28;21017;-44
2023/09/08 09:08:41;;;;;;;14.90;13.60;;;;;;;26.46;98.24;101952.84;4958048;28;20547;-44
2023/09/08 09:11:08;;;;;;;13.07;11.97;;;;;;;26.64;100.00;101951.47;4967393;28;20435;-40
2023/09/08 09:13:36;;;;;;;13.57;12.47;;;;;;;26.66;97.40;101950.09;4957409;28;20976;-40
2023/09/08 09:16:07;;;;;;;13.23;12.17;;;;;;;26.64;96.17;101935.84;4973969;28;20458;-39
2023/09/08 09:18:35;;;;;;;13.53;12.57;;;;;;;26.82;97.77;101942.75;4955718;28;20496;-40
2023/09/08 09:21:03;;;;;;;11.23;10.53;;;;;;;27.04;97.24;101931.44;4955944;28;20446;-43
2023/09/08 09:23:33;;;;;;;13.30;12.20;;;;;;;27.23;97.38;101936.06;4964906;28;20434;-42
2023/09/08 09:26:04;;;;;;;11.93;10.97;;;;;;;27.23;93.82;101930.59;4974693;28;20544;-44
2023/09/08 09:28:32;;;;;;;12.50;11.60;;;;;;;27.39;95.73;101928.59;4974868;28;20465;-45
2023/09/08 09:31:01;;;;;;;11.67;10.53;;;;;;;27.46;96.59;101937.38;4975372;28;20470;-46
2023/09/08 09:33:29;;;;;;;11.83;11.03;;;;;;;27.38;96.45;101941.50;4973233;28;20881;-45
2023/09/08 09:35:58;;;;;;;14.90;13.60;;;;;;;27.44;93.96;101943.16;4956050;28;20570;-47
2023/09/08 09:38:27;;;;;;;12.73;11.13;;;;;;;27.42;94.44;101948.06;4964707;28;20826;-42
2023/09/08 09:40:56;;;;;;;11.70;10.80;;;;;;;27.41;93.74;101953.81;4961997;28;20435;-41
2023/09/08 09:43:28;;;;;;;10.47;9.67;;;;;;;27.50;93.68;101951.34;4955899;28;20447;-41
2023/09/08 09:45:56;;;;;;;12.10;10.97;;;;;;;27.67;94.05;101954.53;4968905;28;20466;-43
2023/09/08 09:48:24;;;;;;;12.00;10.97;;;;;;;27.76;92.94;101950.13;4958135;28;20466;-43
2023/09/08 09:50:52;;;;;;;11.60;10.63;;;;;;;27.76;90.40;101945.47;4955989;28;20462;-42
2023/09/08 09:53:21;;;;;;;11.37;10.37;;;;;;;27.69;91.81;101944.94;4956011;28;20582;-42
2023/09/08 09:55:49;;;;;;;11.00;10.20;;;;;;;28.01;93.54;101944.50;4967107;28;20986;-41
2023/09/08 09:58:17;;;;;;;11.43;10.53;;;;;;;27.97;87.72;101949.72;4957202;28;20544;-42
2023/09/08 10:00:49;;;;;;;10.60;9.90;;;;;;;28.09;91.32;101945.84;4955484;28;21038;-41
2023/09/08 10:03:19;;;;;;;11.20;10.47;;;;;;;28.24;90.99;101943.00;4972146;28;20981;-44
2023/09/08 10:05:49;;;;;;;10.90;10.10;;;;;;;28.23;86.47;101933.09;4962496;28;20459;-40
2023/09/08 10:08:17;;;;;;;11.93;10.83;;;;;;;28.23;88.72;101933.09;4956640;28;20483;-40
2023/09/08 10:10:47;;;;;;;10.83;10.03;;;;;;;28.40;87.53;101931.63;4964892;28;20439;-43
2023/09/08 10:13:21;;;;;;;9.93;9.20;;;;;;;28.47;83.97;101928.53;4973204;28;20505;-43
2023/09/08 10:15:52;;;;;;;9.70;9.00;;;;;;;28.69;84.58;101937.16;4973127;28;20470;-42
2023/09/08 10:18:22;;;;;;;11.57;10.67;;;;;;;28.54;83.82;101927.09;4964154;28;20498;-41
2023/09/08 10:20:52;;;;;;;10.90;10.00;;;;;;;28.54;86.62;101923.53;4977594;28;20435;-42
2023/09/08 10:23:24;;;;;;;9.40;8.80;;;;;;;28.50;83.23;101919.72;4970403;28;20432;-40
2023/09/08 10:25:57;;;;;;;9.10;8.40;;;;;;;28.46;82.59;101921.44;4973951;28;20462;-42
2023/09/08 10:28:28;;;;;;;10.27;9.47;;;;;;;28.65;78.30;101918.78;4973049;28;20454;-40
2023/09/08 10:30:58;;;;;;;8.97;8.37;;;;;;;28.76;81.08;101909.38;4973846;28;20439;-40
2023/09/08 10:33:27;;;;;;;9.00;8.20;;;;;;;28.96;79.19;101911.91;4971107;28;20595;-41
2023/09/08 10:35:55;;;;;;;10.80;9.37;;;;;;;28.79;76.72;101912.34;4961109;28;20466;-42
2023/09/08 10:38:24;;;;;;;8.47;7.97;;;;;;;28.73;78.24;101908.03;4961237;28;20510;-41
2023/09/08 10:40:52;;;;;;;9.30;8.60;;;;;;;28.94;75.23;101906.69;4961037;28;20446;-43
2023/09/08 10:43:21;;;;;;;9.20;8.30;;;;;;;29.12;76.39;101907.06;4960944;28;20442;-40
2023/09/08 10:45:48;;;;;;;8.90;8.20;;;;;;;29.14;73.42;101916.63;4972560;28;20459;-40
2023/09/08 10:48:20;;;;;;;10.17;9.30;;;;;;;29.02;74.65;101918.97;4964914;28;20514;-40
2023/09/08 10:50:48;;;;;;;9.33;8.57;;;;;;;29.20;74.27;101912.72;4974505;28;20442;-44
2023/09/08 10:53:17;;;;;;;8.70;8.00;;;;;;;29.17;70.04;101918.81;4973639;28;20550;-42
2023/09/08 10:55:48;;;;;;;9.40;8.70;;;;;;;29.27;68.62;101926.16;4973342;28;20494;-41
2023/09/08 10:58:38;;;;;;;8.73;8.13;;;;;;;29.28;68.08;101919.50;4980910;28;20795;-40
2023/09/08 11:01:07;;;;;;;8.53;7.87;;;;;;;29.30;69.21;101915.34;4981211;28;20806;-42
2023/09/08 11:03:49;;;;;;;8.53;7.93;;;;;;;29.03;65.11;101912.38;4981869;28;20435;-41
2023/09/08 11:06:20;;;;;;;7.90;7.20;;;;;;;29.01;68.41;101906.34;4980562;28;20981;-41